createdAt,value
2023-02-11T00:00:59.845Z,16.20
2023-02-11T00:03:26.697Z,17.00
2023-02-11T00:06:04.593Z,18.33
2023-02-11T00:08:31.504Z,17.60
2023-02-11T00:10:58.795Z,17.05
2023-02-11T00:13:25.922Z,17.90
2023-02-11T00:15:53.964Z,18.85
2023-02-11T00:18:21.293Z,18.75
2023-02-11T00:20:48.112Z,17.70
2023-02-11T00:23:14.919Z,17.38
2023-02-11T00:25:45.579Z,16.83
2023-02-11T00:28:12.910Z,18.63
2023-02-11T00:30:40.864Z,17.65
2023-02-11T00:33:08.558Z,18.02
2023-02-11T00:35:38.649Z,17.80
2023-02-11T00:38:08.081Z,16.67
2023-02-11T00:40:34.936Z,17.63
2023-02-11T00:43:03.536Z,19.23
2023-02-11T00:45:30.645Z,18.55
2023-02-11T00:47:57.944Z,17.38
2023-02-11T00:50:24.769Z,17.13
2023-02-11T00:52:51.545Z,18.63
2023-02-11T00:55:18.423Z,18.35
2023-02-11T00:57:45.162Z,17.08
2023-02-11T01:00:13.769Z,17.63
2023-02-11T01:02:40.566Z,15.95
2023-02-11T01:05:07.981Z,16.48
2023-02-11T01:07:34.787Z,17.27
2023-02-11T01:10:01.517Z,16.67
2023-02-11T01:12:30.095Z,18.48
2023-02-11T01:14:58.388Z,19.27
2023-02-11T01:17:25.224Z,20.08
2023-02-11T01:19:51.945Z,18.92
2023-02-11T01:22:18.762Z,19.67
2023-02-11T01:24:47.687Z,19.17
2023-02-11T01:27:14.448Z,18.35
2023-02-11T01:29:41.283Z,19.80
2023-02-11T01:32:08.248Z,19.02
2023-02-11T01:34:35.272Z,17.88
2023-02-11T01:37:02.491Z,20.65
2023-02-11T01:39:36.235Z,20.65
2023-02-11T01:42:03.073Z,19.83
2023-02-11T01:44:36.254Z,22.27
2023-02-11T01:47:06.236Z,23.60
2023-02-11T01:49:36.415Z,21.23
2023-02-11T01:52:17.580Z,20.98
2023-02-11T01:55:09.530Z,20.27
2023-02-11T01:57:38.814Z,17.38
2023-02-11T02:00:21.545Z,17.42
2023-02-11T02:03:09.755Z,16.33
2023-02-11T02:06:13.969Z,16.20
2023-02-11T02:08:45.724Z,22.13
2023-02-11T02:11:12.820Z,23.35
2023-02-11T02:13:39.629Z,22.73
2023-02-11T02:16:11.705Z,21.10
2023-02-11T02:18:44.245Z,18.98
2023-02-11T02:21:48.896Z,19.08
2023-02-11T02:24:22.944Z,17.17
2023-02-11T02:27:08.425Z,17.67
2023-02-11T02:30:08.414Z,17.23
2023-02-11T02:33:22.488Z,17.52
2023-02-11T02:36:14.008Z,15.80
2023-02-11T02:38:59.124Z,15.63
2023-02-11T02:41:30.585Z,16.02
2023-02-11T02:43:57.793Z,17.27
2023-02-11T02:46:30.760Z,18.00
2023-02-11T02:48:59.260Z,20.48
2023-02-11T02:51:49.738Z,24.98
2023-02-11T02:54:43.879Z,22.73
2023-02-11T02:57:37.129Z,19.10
2023-02-11T03:00:19.420Z,19.80
2023-02-11T03:03:13.523Z,19.00
2023-02-11T03:05:49.023Z,18.00
2023-02-11T03:08:38.039Z,18.30
2023-02-11T03:11:07.589Z,17.55
2023-02-11T03:13:36.618Z,18.48
2023-02-11T03:16:11.392Z,18.27
2023-02-11T03:18:41.831Z,18.00
2023-02-11T03:21:11.007Z,20.00
2023-02-11T03:23:51.526Z,25.80
2023-02-11T03:26:48.429Z,26.70
2023-02-11T03:29:37.547Z,24.77
2023-02-11T03:32:07.530Z,22.42
2023-02-11T03:34:44.019Z,22.15
2023-02-11T03:37:40.119Z,20.33
2023-02-11T03:40:15.392Z,18.70
2023-02-11T03:43:11.181Z,20.48
2023-02-11T03:45:39.388Z,20.60
2023-02-11T03:48:19.899Z,20.42
2023-02-11T03:50:48.523Z,17.50
2023-02-11T03:53:16.879Z,20.65
2023-02-11T03:55:47.088Z,22.20
2023-02-11T03:58:13.898Z,22.65
2023-02-11T04:00:43.457Z,20.33
2023-02-11T04:03:11.166Z,21.40
2023-02-11T04:05:38.552Z,20.48
2023-02-11T04:08:05.678Z,19.80
2023-02-11T04:10:32.449Z,18.17
2023-02-11T04:12:59.287Z,18.38
2023-02-11T04:15:26.281Z,18.50
2023-02-11T04:17:53.015Z,19.10
2023-02-11T04:20:19.918Z,18.40
2023-02-11T04:22:46.767Z,19.02
2023-02-11T04:25:13.655Z,17.77
2023-02-11T04:27:40.412Z,17.67
2023-02-11T04:30:08.509Z,17.60
2023-02-11T04:32:35.241Z,21.77
2023-02-11T04:35:02.845Z,25.60
2023-02-11T04:37:29.636Z,25.08
2023-02-11T04:39:56.565Z,30.15
2023-02-11T04:42:23.620Z,28.80
2023-02-11T04:44:50.406Z,28.02
2023-02-11T04:47:17.899Z,28.38
2023-02-11T04:49:44.678Z,29.17
2023-02-11T04:52:11.521Z,28.08
2023-02-11T04:54:38.340Z,27.75
2023-02-11T04:57:05.421Z,29.88
2023-02-11T04:59:32.450Z,26.42
2023-02-11T05:01:59.197Z,28.48
2023-02-11T05:04:26.117Z,27.98
2023-02-11T05:06:52.894Z,26.20
2023-02-11T05:09:19.735Z,28.42
2023-02-11T05:11:46.486Z,27.95
2023-02-11T05:14:13.262Z,27.33
2023-02-11T05:16:40.144Z,27.85
2023-02-11T05:19:06.929Z,28.80
2023-02-11T05:21:34.056Z,26.88
2023-02-11T05:24:01.023Z,27.73
2023-02-11T05:26:27.901Z,29.25
2023-02-11T05:28:54.753Z,30.38
2023-02-11T05:31:21.523Z,28.50
2023-02-11T05:33:48.339Z,28.63
2023-02-11T05:36:15.933Z,27.60
2023-02-11T05:38:43.373Z,27.10
2023-02-11T05:41:12.997Z,26.92
2023-02-11T05:43:39.828Z,25.10
2023-02-11T05:46:06.897Z,23.80
2023-02-11T05:48:33.751Z,24.13
2023-02-11T05:51:00.584Z,22.10
2023-02-11T05:53:27.330Z,19.50
2023-02-11T05:55:54.395Z,17.15
2023-02-11T05:58:21.402Z,21.00
2023-02-11T06:00:48.126Z,23.33
2023-02-11T06:03:14.919Z,26.17
2023-02-11T06:05:43.915Z,25.88
2023-02-11T06:08:10.923Z,28.30
2023-02-11T06:10:38.106Z,28.15
2023-02-11T06:13:05.046Z,27.50
2023-02-11T06:15:31.801Z,26.02
2023-02-11T06:17:59.032Z,26.88
2023-02-11T06:20:25.858Z,26.70
2023-02-11T06:22:52.598Z,26.35
2023-02-11T06:25:19.423Z,25.50
2023-02-11T06:27:46.283Z,26.65
2023-02-11T06:30:13.857Z,24.75
2023-02-11T06:32:45.448Z,23.52
2023-02-11T06:35:14.348Z,23.40
2023-02-11T06:37:41.847Z,24.98
2023-02-11T06:40:09.558Z,25.90
2023-02-11T06:42:38.653Z,26.45
2023-02-11T06:45:09.450Z,24.67
2023-02-11T06:47:36.699Z,26.00
2023-02-11T06:50:03.717Z,25.50
2023-02-11T06:52:30.494Z,26.48
2023-02-11T06:54:57.216Z,26.33
2023-02-11T06:57:23.992Z,26.40
2023-02-11T06:59:51.032Z,26.17
2023-02-11T07:02:20.640Z,26.25
2023-02-11T07:04:47.822Z,24.60
2023-02-11T07:07:14.588Z,25.23
2023-02-11T07:09:41.669Z,26.88
2023-02-11T07:12:10.362Z,27.00
2023-02-11T07:14:37.169Z,24.05
2023-02-11T07:17:04.806Z,22.52
2023-02-11T07:19:32.027Z,20.77
2023-02-11T07:21:58.767Z,20.70
2023-02-11T07:24:25.514Z,26.15
2023-02-11T07:26:53.597Z,26.02
2023-02-11T07:29:20.351Z,24.88
2023-02-11T07:31:47.307Z,22.73
2023-02-11T07:34:14.489Z,24.17
2023-02-11T07:36:43.627Z,24.40
2023-02-11T07:39:10.631Z,23.92
2023-02-11T07:41:38.466Z,24.50
2023-02-11T07:44:05.467Z,26.23
2023-02-11T07:46:32.901Z,26.35
2023-02-11T07:49:00.000Z,25.50
2023-02-11T07:51:31.420Z,26.15
2023-02-11T07:53:59.970Z,25.25
2023-02-11T07:56:28.411Z,23.38
2023-02-11T07:58:59.710Z,24.58
2023-02-11T08:01:28.630Z,21.10
2023-02-11T08:03:57.031Z,24.90
2023-02-11T08:06:26.169Z,23.20
2023-02-11T08:08:53.624Z,24.33
2023-02-11T08:11:27.081Z,24.13
2023-02-11T08:13:55.014Z,26.02
2023-02-11T08:16:30.799Z,25.58
2023-02-11T08:18:59.474Z,26.20
2023-02-11T08:21:26.880Z,23.17
2023-02-11T08:23:54.654Z,23.90
2023-02-11T08:26:27.098Z,24.65
2023-02-11T08:28:55.850Z,23.80
2023-02-11T08:31:27.943Z,23.45
2023-02-11T08:33:57.822Z,23.80
2023-02-11T08:36:41.799Z,22.10
2023-02-11T08:39:21.218Z,23.35
2023-02-11T08:41:50.321Z,22.25
2023-02-11T08:44:18.654Z,22.60
2023-02-11T08:46:45.832Z,21.20
2023-02-11T08:49:12.682Z,22.65
2023-02-11T08:51:44.688Z,19.52
2023-02-11T08:54:11.755Z,20.88
2023-02-11T08:56:39.494Z,22.40
2023-02-11T08:59:07.439Z,19.60
2023-02-11T09:01:34.931Z,19.73
2023-02-11T09:04:01.818Z,19.48
2023-02-11T09:06:29.414Z,22.13
2023-02-11T09:08:57.779Z,21.45
2023-02-11T09:11:43.766Z,22.13
2023-02-11T09:14:21.193Z,21.33
2023-02-11T09:16:48.395Z,20.90
2023-02-11T09:19:15.452Z,20.80
2023-02-11T09:21:42.188Z,21.67
2023-02-11T09:24:09.182Z,20.65
2023-02-11T09:26:37.132Z,22.73
2023-02-11T09:29:05.485Z,22.95
2023-02-11T09:31:34.368Z,22.90
2023-02-11T09:34:05.890Z,22.20
2023-02-11T09:36:37.589Z,20.88
2023-02-11T09:39:07.761Z,21.83
2023-02-11T09:42:07.859Z,20.80
2023-02-11T09:44:36.476Z,22.45
2023-02-11T09:47:07.000Z,20.95
2023-02-11T09:49:40.934Z,20.83
2023-02-11T09:52:39.461Z,23.33
2023-02-11T09:55:19.429Z,20.15
2023-02-11T09:57:46.575Z,20.15
2023-02-11T10:00:25.692Z,20.90
2023-02-11T10:03:16.731Z,19.65
2023-02-11T10:05:57.768Z,17.25
2023-02-11T10:08:47.554Z,17.77
2023-02-11T10:11:36.822Z,19.40
2023-02-11T10:14:15.707Z,19.58
2023-02-11T10:16:50.756Z,19.15
2023-02-11T10:19:45.429Z,17.65
2023-02-11T10:22:16.957Z,15.23
2023-02-11T10:24:51.673Z,15.93
2023-02-11T10:29:57.310Z,21.55
2023-02-11T10:32:39.281Z,18.17
2023-02-11T10:35:15.538Z,16.00
2023-02-11T10:37:44.467Z,14.48
2023-02-11T10:40:29.254Z,13.15
2023-02-11T10:42:59.765Z,13.05
2023-02-11T10:45:43.240Z,13.35
2023-02-11T10:48:51.741Z,13.50
2023-02-11T10:51:35.500Z,17.13
2023-02-11T10:54:05.388Z,15.18
2023-02-11T10:56:36.204Z,14.68
2023-02-11T10:59:07.609Z,15.23
2023-02-11T11:02:00.523Z,14.32
2023-02-11T11:04:30.496Z,12.50
2023-02-11T11:07:09.284Z,12.73
2023-02-11T11:10:17.924Z,12.10
2023-02-11T11:12:51.685Z,11.52
2023-02-11T11:15:22.113Z,11.88
2023-02-11T11:17:49.834Z,12.30
2023-02-11T11:20:20.460Z,11.80
2023-02-11T11:22:49.871Z,11.98
2023-02-11T11:25:29.505Z,11.70
2023-02-11T11:27:59.609Z,11.98
2023-02-11T11:30:39.330Z,12.35
2023-02-11T11:33:21.286Z,12.68
2023-02-11T11:36:07.415Z,11.23
2023-02-11T11:38:37.371Z,11.38
2023-02-11T11:41:31.579Z,13.57
2023-02-11T11:44:22.261Z,13.68
2023-02-11T11:46:56.041Z,12.48
2023-02-11T11:49:32.776Z,12.75
2023-02-11T11:52:09.576Z,12.60
2023-02-11T11:54:38.323Z,12.98
2023-02-11T11:57:18.635Z,15.15
2023-02-11T11:59:45.843Z,13.98
2023-02-11T12:02:34.217Z,12.80
2023-02-11T12:05:02.958Z,15.30
2023-02-11T12:07:44.928Z,16.02
2023-02-11T12:10:14.739Z,15.88
2023-02-11T12:13:04.553Z,16.67
2023-02-11T12:16:06.960Z,19.73
2023-02-11T12:18:47.358Z,18.50
2023-02-11T12:21:29.535Z,22.67
2023-02-11T12:23:59.404Z,21.35
2023-02-11T12:26:53.105Z,18.30
2023-02-11T12:29:55.060Z,22.05
2023-02-11T12:32:33.892Z,22.80
2023-02-11T12:35:18.064Z,21.40
2023-02-11T12:38:09.930Z,22.48
2023-02-11T12:41:10.177Z,20.30
2023-02-11T12:43:39.719Z,19.80
2023-02-11T12:46:12.338Z,19.83
2023-02-11T12:49:02.990Z,17.58
2023-02-11T12:51:44.671Z,19.17
2023-02-11T12:54:33.132Z,16.83
2023-02-11T12:57:05.705Z,17.85
2023-02-11T12:59:44.692Z,15.90
2023-02-11T13:02:34.829Z,16.00
2023-02-11T13:05:12.630Z,14.77
2023-02-11T13:07:45.324Z,13.60
2023-02-11T13:10:32.595Z,14.25
2023-02-11T13:13:16.927Z,14.10
2023-02-11T13:15:48.662Z,16.13
2023-02-11T13:18:31.686Z,14.50
2023-02-11T13:20:58.404Z,13.05
2023-02-11T13:23:39.500Z,12.45
2023-02-11T13:26:10.295Z,12.23
2023-02-11T13:28:54.027Z,12.50
2023-02-11T13:31:20.989Z,11.63
2023-02-11T13:33:49.806Z,13.45
2023-02-11T13:36:19.369Z,13.40
2023-02-11T13:38:58.885Z,12.32
2023-02-11T13:41:38.922Z,12.25
2023-02-11T13:44:08.670Z,12.95
2023-02-11T13:46:54.110Z,12.63
2023-02-11T13:49:25.355Z,12.75
2023-02-11T13:51:53.903Z,12.80
2023-02-11T13:54:31.248Z,11.95
2023-02-11T13:57:20.013Z,11.43
2023-02-11T14:00:06.765Z,12.07
2023-02-11T14:02:57.036Z,11.32
2023-02-11T14:05:48.548Z,10.73
2023-02-11T14:08:39.085Z,11.95
2023-02-11T14:11:14.635Z,11.68
2023-02-11T14:13:47.413Z,13.30
2023-02-11T14:16:36.427Z,12.27
2023-02-11T14:19:04.643Z,11.95
2023-02-11T14:21:41.520Z,14.63
2023-02-11T14:24:11.614Z,16.23
2023-02-11T14:27:04.888Z,14.77
2023-02-11T14:29:41.287Z,16.00
2023-02-11T14:32:19.317Z,15.77
2023-02-11T14:34:52.061Z,16.02
2023-02-11T14:37:39.923Z,17.92
2023-02-11T14:40:16.314Z,16.00
2023-02-11T14:42:43.390Z,16.20
2023-02-11T14:45:16.429Z,15.25
2023-02-11T14:47:55.351Z,15.57
2023-02-11T14:50:31.853Z,18.27
2023-02-11T14:53:01.632Z,17.40
2023-02-11T14:55:33.337Z,17.98
2023-02-11T14:58:19.179Z,17.98
2023-02-11T15:00:58.007Z,18.73
2023-02-11T15:03:33.519Z,17.60
2023-02-11T15:06:04.215Z,16.30
2023-02-11T15:08:31.738Z,15.95
2023-02-11T15:11:00.668Z,14.40
2023-02-11T15:13:31.101Z,14.88
2023-02-11T15:16:09.861Z,14.77
2023-02-11T15:18:43.640Z,14.70
2023-02-11T15:21:10.734Z,13.55
2023-02-11T15:23:37.528Z,14.00
2023-02-11T15:26:19.277Z,14.50
2023-02-11T15:28:52.148Z,13.90
2023-02-11T15:31:23.300Z,13.40
2023-02-11T15:33:51.445Z,13.35
2023-02-11T15:36:21.833Z,11.45
2023-02-11T15:39:18.573Z,11.85
2023-02-11T15:41:45.585Z,11.52
2023-02-11T15:44:32.955Z,11.45
2023-02-11T15:47:13.433Z,11.60
2023-02-11T15:49:47.821Z,12.00
2023-02-11T15:52:22.790Z,11.85
2023-02-11T15:54:49.984Z,10.88
2023-02-11T15:57:17.878Z,11.13
2023-02-11T15:59:52.074Z,11.23
2023-02-11T16:02:33.609Z,11.65
2023-02-11T16:05:06.904Z,10.77
2023-02-11T16:07:44.530Z,11.98
2023-02-11T16:10:17.408Z,11.55
2023-02-11T16:13:11.407Z,12.20
2023-02-11T16:15:44.836Z,12.05
2023-02-11T16:18:38.344Z,12.25
2023-02-11T16:21:14.732Z,11.85
2023-02-11T16:23:42.481Z,11.75
2023-02-11T16:26:29.456Z,11.80
2023-02-11T16:29:10.218Z,11.20
2023-02-11T16:31:40.685Z,11.57
2023-02-11T16:34:20.509Z,11.13
2023-02-11T16:36:54.174Z,11.20
2023-02-11T16:39:22.420Z,10.68
2023-02-11T16:41:50.812Z,11.13
2023-02-11T16:44:18.264Z,10.80
2023-02-11T16:46:45.779Z,11.70
2023-02-11T16:49:23.687Z,11.05
2023-02-11T16:51:52.786Z,11.48
2023-02-11T16:54:20.235Z,10.90
2023-02-11T16:56:47.016Z,11.68
2023-02-11T16:59:13.849Z,11.52
2023-02-11T17:01:42.179Z,11.57
2023-02-11T17:04:19.631Z,10.98
2023-02-11T17:06:48.143Z,10.95
2023-02-11T17:09:30.303Z,11.00
2023-02-11T17:11:57.742Z,12.38
2023-02-11T17:14:24.814Z,11.05
2023-02-11T17:16:51.934Z,11.82
2023-02-11T17:19:21.086Z,12.48
2023-02-11T17:21:49.964Z,11.75
2023-02-11T17:24:18.036Z,12.32
2023-02-11T17:26:46.157Z,12.15
2023-02-11T17:29:15.998Z,11.82
2023-02-11T17:31:42.960Z,11.73
2023-02-11T17:34:09.951Z,11.20
2023-02-11T17:36:37.106Z,12.30
2023-02-11T17:39:07.817Z,11.57
2023-02-11T17:41:36.451Z,11.88
2023-02-11T17:44:04.153Z,12.25
2023-02-11T17:46:32.130Z,11.90
2023-02-11T17:48:59.559Z,12.25
2023-02-11T17:51:34.190Z,12.85
2023-02-11T17:54:07.912Z,12.65
2023-02-11T17:56:36.701Z,13.65
2023-02-11T17:59:04.972Z,12.45
2023-02-11T18:01:33.469Z,12.93
2023-02-11T18:04:00.597Z,12.80
2023-02-11T18:06:29.082Z,13.77
2023-02-11T18:08:59.533Z,12.32
2023-02-11T18:11:27.806Z,12.02
2023-02-11T18:13:54.645Z,11.32
2023-02-11T18:16:23.466Z,11.00
2023-02-11T18:18:54.539Z,11.00
2023-02-11T18:21:29.671Z,10.80
2023-02-11T18:24:06.783Z,11.55
2023-02-11T18:26:36.963Z,11.65
2023-02-11T18:29:06.358Z,12.23
2023-02-11T18:31:35.188Z,12.02
2023-02-11T18:34:08.141Z,11.82
2023-02-11T18:36:35.871Z,10.32
2023-02-11T18:39:03.729Z,10.13
2023-02-11T18:41:30.583Z,11.43
2023-02-11T18:43:58.653Z,11.27
2023-02-11T18:46:25.498Z,10.52
2023-02-11T18:48:55.999Z,11.73
2023-02-11T18:51:23.270Z,12.05
2023-02-11T18:53:50.123Z,10.43
2023-02-11T18:56:20.364Z,11.65
2023-02-11T18:58:47.672Z,10.75
2023-02-11T19:01:20.931Z,10.55
2023-02-11T19:03:51.099Z,11.02
2023-02-11T19:06:26.658Z,10.18
2023-02-11T19:08:57.453Z,10.70
2023-02-11T19:11:45.468Z,10.32
2023-02-11T19:14:13.908Z,10.55
2023-02-11T19:16:42.783Z,10.32
2023-02-11T19:19:09.879Z,10.82
2023-02-11T19:21:36.817Z,9.48
2023-02-11T19:24:07.742Z,10.25
2023-02-11T19:26:35.482Z,9.93
2023-02-11T19:29:03.457Z,9.48
2023-02-11T19:31:32.236Z,9.43
2023-02-11T19:33:59.964Z,9.40
2023-02-11T19:36:26.957Z,9.90
2023-02-11T19:38:54.020Z,9.85
2023-02-11T19:41:23.067Z,11.35
2023-02-11T19:43:53.409Z,13.15
2023-02-11T19:46:21.361Z,13.18
2023-02-11T19:48:49.250Z,14.00
2023-02-11T19:51:16.209Z,14.07
2023-02-11T19:53:44.220Z,13.70
2023-02-11T19:56:11.173Z,15.57
2023-02-11T19:58:39.048Z,15.15
2023-02-11T20:01:25.602Z,13.68
2023-02-11T20:03:53.866Z,15.35
2023-02-11T20:06:24.165Z,15.10
2023-02-11T20:09:00.343Z,14.57
2023-02-11T20:11:30.159Z,14.90
2023-02-11T20:13:57.879Z,15.75
2023-02-11T20:16:41.044Z,18.63
2023-02-11T20:19:16.805Z,16.23
2023-02-11T20:21:46.706Z,15.52
2023-02-11T20:24:20.997Z,14.80
2023-02-11T20:26:57.950Z,15.95
2023-02-11T20:29:25.737Z,13.98
2023-02-11T20:31:53.398Z,13.90
2023-02-11T20:34:21.684Z,14.23
2023-02-11T20:36:54.940Z,16.98
2023-02-11T20:39:29.968Z,15.40
2023-02-11T20:42:03.635Z,15.25
2023-02-11T20:44:30.343Z,14.32
2023-02-11T20:46:57.108Z,15.68
2023-02-11T20:49:24.550Z,14.40
2023-02-11T20:51:53.549Z,12.85
2023-02-11T20:54:21.831Z,12.63
2023-02-11T20:56:50.629Z,12.68
2023-02-11T20:59:19.279Z,12.98
2023-02-11T21:01:49.178Z,12.70
2023-02-11T21:04:19.117Z,13.15
2023-02-11T21:06:52.236Z,14.07
2023-02-11T21:09:21.554Z,13.48
2023-02-11T21:11:49.333Z,14.93
2023-02-11T21:14:16.083Z,13.77
2023-02-11T21:16:42.912Z,14.25
2023-02-11T21:19:09.747Z,14.40
2023-02-11T21:21:37.908Z,15.90
2023-02-11T21:24:06.540Z,15.07
2023-02-11T21:26:35.248Z,15.73
2023-02-11T21:29:03.384Z,14.77
2023-02-11T21:31:32.847Z,14.23
2023-02-11T21:33:59.697Z,15.88
2023-02-11T21:36:28.758Z,15.82
2023-02-11T21:38:56.114Z,16.10
2023-02-11T21:41:23.181Z,15.18
2023-02-11T21:43:50.667Z,18.25
2023-02-11T21:46:18.491Z,17.02
2023-02-11T21:48:45.567Z,17.30
2023-02-11T21:51:19.141Z,16.48
2023-02-11T21:53:46.384Z,14.32
2023-02-11T21:56:18.183Z,14.25
2023-02-11T21:58:46.043Z,13.50
2023-02-11T22:01:18.425Z,12.65
2023-02-11T22:03:46.473Z,13.73
2023-02-11T22:06:15.939Z,12.43
2023-02-11T22:08:43.276Z,12.45
2023-02-11T22:11:12.425Z,11.93
2023-02-11T22:13:40.243Z,12.77
2023-02-11T22:16:11.182Z,13.18
2023-02-11T22:18:38.769Z,13.38
2023-02-11T22:21:11.610Z,19.50
2023-02-11T22:23:39.855Z,19.40
2023-02-11T22:26:09.448Z,18.90
2023-02-11T22:28:38.945Z,18.63
2023-02-11T22:31:15.934Z,16.27
2023-02-11T22:33:43.301Z,16.58
2023-02-11T22:36:23.229Z,13.98
2023-02-11T22:38:51.121Z,14.30
2023-02-11T22:41:19.209Z,13.57
2023-02-11T22:43:45.994Z,12.20
2023-02-11T22:46:16.614Z,12.88
2023-02-11T22:48:43.554Z,11.80
2023-02-11T22:51:14.116Z,12.50
2023-02-11T22:53:41.207Z,12.38
2023-02-11T22:56:10.316Z,12.13
2023-02-11T22:58:37.341Z,11.85
2023-02-11T23:01:05.955Z,12.30
2023-02-11T23:03:34.307Z,11.65
2023-02-11T23:06:01.487Z,11.88
2023-02-11T23:08:30.760Z,13.63
2023-02-11T23:11:07.575Z,13.05
2023-02-11T23:13:36.523Z,13.70
2023-02-11T23:16:05.567Z,12.93
2023-02-11T23:18:32.713Z,12.80
2023-02-11T23:21:05.632Z,14.05
2023-02-11T23:23:32.988Z,14.93
2023-02-11T23:26:00.429Z,14.07
2023-02-11T23:28:27.477Z,14.70
2023-02-11T23:30:54.325Z,13.65
2023-02-11T23:33:21.419Z,13.30
2023-02-11T23:35:48.499Z,14.05
2023-02-11T23:38:15.490Z,13.73
2023-02-11T23:40:42.600Z,14.32
2023-02-11T23:43:09.464Z,15.32
2023-02-11T23:45:36.247Z,15.93
2023-02-11T23:48:03.021Z,16.75
2023-02-11T23:50:30.190Z,16.85
2023-02-11T23:52:56.921Z,18.80
2023-02-11T23:55:24.022Z,16.95
2023-02-11T23:57:50.866Z,17.98
